Time;durP1;ratioP1;P1;durP2;ratioP2;P2;SDS_P1;SDS_P2;PMS_P1;PMS_P2;Temp;Humidity;BMP_temperature;BMP_pressure;BME280_temperature;BME280_humidity;BME280_pressure;Samples;Min_cycle;Max_cycle;Signal;HPM_P1;HPM_P2
2022/01/23 00:02:17;;;;;;;7.80;5.30;;;17.70;43.70;;;;;;4992895;28;20209;-65
2022/01/23 00:04:44;;;;;;;7.18;5.15;;;17.70;43.80;;;;;;4991570;28;20197;-65
2022/01/23 00:07:14;;;;;;;5.90;5.20;;;17.70;43.60;;;;;;5008067;28;20213;-65
2022/01/23 00:09:43;;;;;;;5.55;5.05;;;17.60;43.60;;;;;;5009262;28;20206;-65
2022/01/23 00:12:14;;;;;;;5.57;4.68;;;17.60;43.70;;;;;;4996722;28;20220;-65
2022/01/23 00:17:25;;;;;;;6.28;4.60;;;17.50;43.70;;;;;;4996748;28;20305;-64
2022/01/23 00:19:54;;;;;;;5.68;4.80;;;17.50;43.60;;;;;;4996691;28;20189;-65
2022/01/23 00:22:24;;;;;;;5.60;5.00;;;17.50;43.70;;;;;;4994840;28;20221;-64
2022/01/23 00:30:26;;;;;;;6.35;5.05;;;17.30;43.60;;;;;;5011450;28;20185;-64
2022/01/23 00:32:54;;;;;;;5.40;4.75;;;17.40;43.70;;;;;;4996129;28;20213;-65
2022/01/23 00:35:21;;;;;;;5.75;4.80;;;17.30;43.60;;;;;;5011096;28;20690;-64
2022/01/23 00:37:48;;;;;;;6.00;5.00;;;17.30;43.60;;;;;;5011119;28;20305;-65
2022/01/23 00:40:17;;;;;;;5.60;4.93;;;17.30;43.60;;;;;;5011036;28;20293;-64
2022/01/23 00:42:44;;;;;;;5.10;4.60;;;17.30;43.60;;;;;;4994715;28;20221;-64
2022/01/23 00:45:26;;;;;;;5.28;4.78;;;17.20;43.60;;;;;;4994707;28;20264;-65
2022/01/23 00:47:56;;;;;;;5.07;4.57;;;17.20;43.60;;;;;;4996111;28;20587;-65
2022/01/23 00:50:23;;;;;;;5.40;4.90;;;17.20;43.60;;;;;;5010870;28;20272;-65
2022/01/23 00:52:50;;;;;;;6.13;5.22;;;17.20;43.60;;;;;;4994447;28;20660;-65
2022/01/23 00:55:19;;;;;;;5.85;4.68;;;17.20;43.60;;;;;;4994355;28;20272;-65
2022/01/23 00:57:46;;;;;;;5.43;4.85;;;17.10;43.50;;;;;;4994462;28;20228;-64
2022/01/23 01:00:15;;;;;;;5.45;4.53;;;17.10;43.50;;;;;;5010620;28;20670;-64
2022/01/23 01:02:42;;;;;;;5.65;5.05;;;17.10;43.50;;;;;;4995457;28;20213;-64
2022/01/23 01:05:10;;;;;;;5.88;4.68;;;17.10;43.50;;;;;;4995495;28;20280;-65
2022/01/23 01:07:37;;;;;;;6.03;4.60;;;17.10;44.10;;;;;;4994108;28;20299;-64
2022/01/23 01:10:09;;;;;;;4.93;4.53;;;17.00;43.40;;;;;;5010533;28;20233;-65
2022/01/23 01:12:42;;;;;;;5.05;4.28;;;17.00;43.40;;;;;;5010364;28;20221;-65
2022/01/23 01:15:34;;;;;;;6.47;4.82;;;17.00;43.60;;;;;;4993978;28;20654;-65
2022/01/23 01:31:50;;;;;;;4.97;4.38;;;16.90;43.60;;;;;;5010008;28;20225;-65
2022/01/23 01:34:23;;;;;;;4.57;4.18;;;16.90;43.60;;;;;;4993783;28;20197;-65
2022/01/23 01:36:52;;;;;;;5.88;4.38;;;16.90;43.60;;;;;;4993389;28;20213;-65
2022/01/23 01:39:21;;;;;;;5.38;4.53;;;16.90;43.60;;;;;;5009905;28;20201;-65
2022/01/23 01:42:13;;;;;;;5.00;4.18;;;16.90;43.60;;;;;;4994841;28;20220;-65
2022/01/23 01:44:42;;;;;;;4.97;4.18;;;16.90;43.60;;;;;;5006516;23;20280;-70
2022/01/23 01:47:24;;;;;;;5.00;4.50;;;16.80;43.60;;;;;;4994437;28;20276;-72
2022/01/23 01:50:00;;;;;;;4.70;4.15;;;16.80;43.60;;;;;;4994294;28;20276;-69
2022/01/23 01:52:28;;;;;;;4.55;4.10;;;16.80;43.70;;;;;;4994532;28;20197;-72
2022/01/23 01:55:01;;;;;;;5.22;4.65;;;16.80;43.70;;;;;;4977192;28;20222;-69
2022/01/23 01:57:39;;;;;;;4.40;4.00;;;16.80;43.70;;;;;;4975014;28;20224;-71
2022/01/23 02:00:38;;;;;;;4.50;4.10;;;16.80;43.70;;;;;;4975145;28;20225;-70
2022/01/23 02:08:40;;;;;;;4.30;3.90;;;16.70;43.70;;;;;;4974493;28;20193;-71
2022/01/23 02:11:12;;;;;;;4.55;4.07;;;16.70;43.70;;;;;;4974369;28;20628;-70
2022/01/23 02:13:45;;;;;;;4.40;4.00;;;16.70;43.80;;;;;;4973959;28;20252;-70
2022/01/23 02:25:13;;;;;;;4.60;4.00;;;16.60;43.90;;;;;;4974031;28;20353;-68
2022/01/23 02:52:48;;;;;;;5.03;4.55;;;16.60;44.00;;;;;;4921295;28;20221;-69
2022/01/23 02:55:23;;;;;;;4.78;3.90;;;16.50;43.90;;;;;;4973523;28;20655;-69
2022/01/23 02:57:56;;;;;;;4.93;4.50;;;16.50;43.90;;;;;;4973325;28;20281;-69
2022/01/23 03:00:34;;;;;;;4.32;3.92;;;16.50;43.90;;;;;;4973570;28;20224;-70
2022/01/23 03:03:35;;;;;;;4.85;4.35;;;16.50;43.90;;;;;;4973865;28;20308;-72
2022/01/23 03:06:38;;;;;;;4.68;4.15;;;16.40;43.80;;;;;;4974719;28;20252;-70
2022/01/23 03:09:51;;;;;;;4.82;4.43;;;16.50;43.90;;;;;;4973351;28;20249;-70
2022/01/23 03:12:16;;;;;;;4.95;4.55;;;16.40;43.80;;;;;;4973105;28;20277;-71
2022/01/23 03:14:51;;;;;;;5.35;4.43;;;16.50;43.90;;;;;;4973012;28;20217;-68
2022/01/23 03:28:22;;;;;;;5.00;4.50;;;16.40;43.90;;;;;;4972898;28;20194;-72
2022/01/23 03:31:05;;;;;;;4.43;4.07;;;16.40;43.90;;;;;;4973393;28;20202;-70
2022/01/23 03:33:32;;;;;;;4.28;3.88;;;16.40;44.00;;;;;;4972646;28;20222;-69
2022/01/23 03:35:59;;;;;;;4.82;4.35;;;16.40;43.90;;;;;;4972733;28;20218;-70
2022/01/23 03:38:26;;;;;;;5.03;4.50;;;16.40;44.00;;;;;;4972824;28;20209;-72
2022/01/23 03:40:53;;;;;;;4.43;4.03;;;16.40;44.00;;;;;;4972527;28;20209;-69
2022/01/23 03:43:27;;;;;;;5.32;4.82;;;16.40;44.00;;;;;;4972556;28;20776;-70
2022/01/23 03:46:20;;;;;;;4.78;4.30;;;16.30;43.90;;;;;;4975141;28;20201;-70
2022/01/23 03:51:31;;;;;;;4.55;4.15;;;16.30;44.00;;;;;;4976772;28;20193;-70
2022/01/23 03:53:58;;;;;;;5.35;4.40;;;16.30;43.90;;;;;;4976404;28;20702;-68
2022/01/23 03:56:24;;;;;;;4.60;4.20;;;16.30;44.00;;;;;;4976450;28;20218;-72
2022/01/23 03:58:55;;;;;;;4.70;4.10;;;16.30;44.00;;;;;;4976393;28;20198;-70
2022/01/23 04:01:22;;;;;;;5.45;4.97;;;16.30;44.10;;;;;;4976370;28;20256;-72
2022/01/23 04:03:56;;;;;;;4.68;4.28;;;16.30;44.00;;;;;;4976276;28;20220;-69
2022/01/23 04:06:23;;;;;;;5.53;5.03;;;16.30;43.90;;;;;;4976597;28;20297;-71
2022/01/23 04:08:51;;;;;;;4.80;4.20;;;16.30;43.90;;;;;;4976240;28;20248;-70
2022/01/23 04:11:19;;;;;;;5.20;4.70;;;16.30;44.00;;;;;;4976389;28;20297;-69
2022/01/23 04:13:50;;;;;;;4.60;4.20;;;16.30;44.60;;;;;;4976248;28;20729;-71
2022/01/23 04:16:49;;;;;;;6.45;5.82;;;16.20;44.10;;;;;;4976181;28;20311;-72
2022/01/23 04:45:11;;;;;;;5.57;5.07;;;16.30;43.90;;;;;;4975361;28;20237;-70
2022/01/23 05:00:48;;;;;;;5.50;5.00;;;16.40;43.50;;;;;;4975425;28;20197;-67
2022/01/23 05:06:30;;;;;;;5.63;5.13;;;16.40;43.30;;;;;;4976010;28;20198;-69
2022/01/23 05:09:12;;;;;;;5.30;4.80;;;16.40;43.20;;;;;;4975144;28;20202;-70
2022/01/23 05:11:50;;;;;;;4.80;4.40;;;16.50;43.30;;;;;;4975245;28;20244;-68
2022/01/23 05:14:29;;;;;;;4.50;4.10;;;16.50;43.10;;;;;;4974869;28;20305;-69
2022/01/23 05:16:56;;;;;;;5.22;4.72;;;16.50;43.20;;;;;;4975087;28;20313;-71
2022/01/23 05:19:23;;;;;;;4.50;4.10;;;16.50;43.10;;;;;;4974786;28;20202;-71
2022/01/23 05:22:12;;;;;;;5.28;4.78;;;16.50;43.10;;;;;;4976026;28;20229;-69
2022/01/23 05:24:44;;;;;;;5.50;4.38;;;16.50;43.00;;;;;;4974945;28;20222;-68
2022/01/23 05:27:11;;;;;;;4.75;4.35;;;16.50;43.00;;;;;;4976833;28;20178;-68
2022/01/23 05:29:38;;;;;;;5.00;4.55;;;16.60;43.10;;;;;;4975805;28;20221;-71
2022/01/23 05:32:07;;;;;;;4.70;4.30;;;16.50;43.00;;;;;;4975636;28;20237;-68
2022/01/23 05:34:34;;;;;;;4.53;4.13;;;16.60;43.10;;;;;;4974854;28;20218;-69
2022/01/23 05:37:25;;;;;;;4.40;4.00;;;16.60;43.00;;;;;;4975903;28;20709;-71
2022/01/23 05:39:53;;;;;;;4.20;3.90;;;16.60;43.00;;;;;;4974582;28;20202;-71
2022/01/23 05:42:20;;;;;;;4.78;4.32;;;16.60;43.00;;;;;;4975783;28;20198;-68
2022/01/23 05:44:47;;;;;;;5.53;4.50;;;16.60;42.80;;;;;;4974385;28;20225;-71
2022/01/23 05:47:14;;;;;;;5.47;4.97;;;16.60;42.70;;;;;;4974626;28;20217;-71
2022/01/23 05:49:58;;;;;;;4.75;4.35;;;16.70;42.80;;;;;;4974690;28;20198;-68
2022/01/23 05:52:38;;;;;;;5.05;4.60;;;16.70;42.80;;;;;;4974849;28;20613;-71
2022/01/23 05:55:24;;;;;;;4.93;4.43;;;16.70;42.60;;;;;;4975855;28;20197;-71
2022/01/23 05:58:11;;;;;;;4.90;4.40;;;16.70;42.60;;;;;;4974192;28;20222;-69
2022/01/23 06:00:42;;;;;;;5.15;4.65;;;16.70;42.60;;;;;;4990589;28;20669;-71
2022/01/23 06:03:16;;;;;;;5.00;4.50;;;16.70;42.60;;;;;;4973990;28;20222;-71
2022/01/23 06:06:01;;;;;;;4.70;4.30;;;16.70;42.60;;;;;;4974549;28;20205;-68
2022/01/23 06:08:31;;;;;;;4.57;4.18;;;16.80;42.60;;;;;;4973453;28;20721;-68
2022/01/23 06:10:58;;;;;;;4.30;3.90;;;16.80;42.60;;;;;;4973939;28;20217;-69
2022/01/23 06:13:33;;;;;;;4.60;4.20;;;16.80;42.60;;;;;;4973856;28;20717;-69
2022/01/23 06:16:00;;;;;;;5.60;4.90;;;16.80;42.50;;;;;;4974015;28;20212;-68
2022/01/23 06:18:27;;;;;;;4.63;4.18;;;16.80;42.30;;;;;;4973974;28;20224;-67
2022/01/23 06:21:25;;;;;;;4.70;4.30;;;16.90;42.50;;;;;;4990302;28;20284;-69
2022/01/23 06:24:06;;;;;;;5.47;4.97;;;16.90;42.50;;;;;;4975186;28;20231;-66
2022/01/23 06:26:53;;;;;;;4.53;4.13;;;16.90;42.40;;;;;;4975054;28;20669;-67
2022/01/23 06:29:20;;;;;;;4.95;4.55;;;16.90;42.40;;;;;;4973664;28;20198;-69
2022/01/23 06:31:47;;;;;;;5.35;4.93;;;16.90;42.30;;;;;;4973650;28;20250;-69
2022/01/23 06:34:15;;;;;;;5.07;4.57;;;16.90;42.30;;;;;;4973567;28;20305;-69
2022/01/23 06:36:43;;;;;;;5.07;4.68;;;16.90;42.30;;;;;;4973418;28;20690;-68
2022/01/23 06:39:12;;;;;;;4.68;4.28;;;16.90;42.30;;;;;;4973578;28;20198;-68
2022/01/23 06:41:40;;;;;;;4.95;4.55;;;16.90;42.30;;;;;;4973826;28;20194;-69
2022/01/23 06:44:22;;;;;;;5.03;4.47;;;16.90;42.10;;;;;;4973326;28;20256;-69
2022/01/23 06:46:50;;;;;;;5.18;4.65;;;17.00;42.30;;;;;;4973516;28;20198;-69
2022/01/23 06:49:17;;;;;;;5.05;4.55;;;17.00;42.20;;;;;;4973389;28;20761;-69
2022/01/23 06:51:47;;;;;;;4.68;4.20;;;17.00;42.30;;;;;;4973316;28;20205;-67
2022/01/23 06:54:15;;;;;;;4.78;4.38;;;17.00;42.30;;;;;;4973158;28;20254;-67
2022/01/23 06:56:42;;;;;;;4.80;4.40;;;17.00;42.20;;;;;;4972860;28;20654;-69
2022/01/23 06:59:09;;;;;;;5.25;4.75;;;17.00;42.30;;;;;;4973248;28;20225;-67
2022/01/23 07:01:39;;;;;;;4.70;4.30;;;17.00;42.10;;;;;;4973110;28;20229;-69
2022/01/23 07:04:25;;;;;;;5.60;5.10;;;17.00;42.10;;;;;;4974178;28;20228;-69
2022/01/23 07:07:06;;;;;;;5.82;4.60;;;17.00;42.10;;;;;;4973145;28;20194;-69
2022/01/23 07:09:49;;;;;;;5.70;5.18;;;17.00;42.10;;;;;;4974576;28;20187;-67
2022/01/23 07:12:28;;;;;;;5.35;4.65;;;17.00;42.10;;;;;;4972912;28;20214;-67
2022/01/23 07:15:09;;;;;;;5.55;5.05;;;17.00;42.10;;;;;;4972970;28;20700;-67
2022/01/23 07:17:40;;;;;;;4.22;3.83;;;17.00;42.00;;;;;;4974292;28;20237;-67
2022/01/23 07:20:21;;;;;;;5.28;4.78;;;17.00;42.10;;;;;;4972006;28;20249;-69
2022/01/23 07:22:49;;;;;;;5.32;4.93;;;17.00;42.00;;;;;;4973137;28;20227;-69
2022/01/23 07:25:17;;;;;;;5.47;4.95;;;17.10;42.20;;;;;;4973030;28;20541;-68
2022/01/23 07:27:49;;;;;;;4.68;4.28;;;17.10;42.10;;;;;;4973479;28;20312;-67
2022/01/23 07:30:29;;;;;;;5.28;4.78;;;17.10;42.00;;;;;;4973778;28;20194;-67
2022/01/23 07:32:57;;;;;;;5.70;5.15;;;17.10;42.00;;;;;;4974359;28;20284;-66
2022/01/23 07:35:24;;;;;;;5.93;4.45;;;17.10;42.00;;;;;;4973239;28;20213;-68
2022/01/23 07:37:51;;;;;;;4.43;4.05;;;17.10;42.10;;;;;;4973056;28;20221;-68
2022/01/23 07:40:25;;;;;;;4.78;4.38;;;17.10;42.10;;;;;;4974497;28;20194;-66
2022/01/23 07:42:55;;;;;;;5.18;4.78;;;17.10;41.90;;;;;;4972724;28;20737;-68
2022/01/23 07:45:41;;;;;;;5.43;4.93;;;17.10;41.90;;;;;;4973884;28;20212;-66
2022/01/23 07:48:28;;;;;;;4.95;4.45;;;17.10;41.90;;;;;;4973280;28;20616;-69
2022/01/23 07:51:07;;;;;;;3.47;3.17;;;17.10;41.90;;;;;;4972518;28;20202;-68
2022/01/23 07:53:53;;;;;;;5.20;4.70;;;17.20;42.00;;;;;;4972512;28;20316;-69
2022/01/23 07:56:42;;;;;;;5.43;4.93;;;17.20;41.90;;;;;;4973954;28;20205;-67
2022/01/23 07:59:47;;;;;;;5.40;4.90;;;17.20;42.50;;;;;;4973506;28;20281;-67
2022/01/23 08:02:34;;;;;;;4.90;4.50;;;17.20;41.90;;;;;;4976969;28;20206;-69
2022/01/23 08:05:20;;;;;;;4.80;4.40;;;17.20;41.90;;;;;;4974021;28;20233;-68
2022/01/23 08:08:23;;;;;;;4.45;4.05;;;17.20;41.90;;;;;;4972530;28;20190;-69
2022/01/23 08:11:11;;;;;;;4.68;4.28;;;17.20;42.00;;;;;;4972693;28;20206;-67
2022/01/23 08:13:40;;;;;;;5.53;5.10;;;17.20;41.90;;;;;;4972348;28;20309;-66
2022/01/23 08:16:07;;;;;;;4.68;4.28;;;17.20;41.80;;;;;;4972544;28;20202;-67
2022/01/23 08:18:34;;;;;;;4.75;4.35;;;17.20;41.90;;;;;;4972217;28;20666;-68
2022/01/23 08:21:01;;;;;;;5.93;5.38;;;17.20;41.80;;;;;;4972453;28;20284;-69
2022/01/23 08:23:28;;;;;;;4.60;4.20;;;17.20;41.80;;;;;;4972417;28;20222;-67
2022/01/23 08:25:55;;;;;;;4.68;4.28;;;17.30;41.90;;;;;;4972385;28;20206;-69
2022/01/23 08:28:22;;;;;;;5.50;5.00;;;17.30;41.80;;;;;;4973825;28;20190;-67
2022/01/23 08:30:50;;;;;;;5.03;4.63;;;17.30;41.90;;;;;;4972945;28;20217;-67
2022/01/23 08:33:17;;;;;;;5.35;4.85;;;17.30;41.80;;;;;;4979249;28;20689;-70
2022/01/23 08:35:53;;;;;;;4.88;4.47;;;17.30;41.60;;;;;;4975908;28;20708;-68
2022/01/23 08:38:20;;;;;;;5.10;4.60;;;17.30;41.80;;;;;;4976024;28;20218;-68
2022/01/23 08:41:49;;;;;;;5.93;5.40;;;17.30;41.70;;;;;;4976519;28;20326;-70
2022/01/23 08:43:38;;;;;;;7.38;5.65;;;17.30;41.80;;;;;;4976456;28;20308;-71
2022/01/23 08:46:06;;;;;;;5.50;4.75;;;17.40;42.00;;;;;;4978618;28;20202;-69
2022/01/23 08:48:33;;;;;;;7.40;5.60;;;17.40;41.90;;;;;;4978684;28;20198;-67
2022/01/23 08:51:00;;;;;;;7.20;5.45;;;17.40;42.30;;;;;;4976677;28;20666;-68
2022/01/23 08:53:28;;;;;;;6.97;6.22;;;17.40;42.40;;;;;;4979007;28;20253;-69
2022/01/23 08:55:55;;;;;;;9.65;6.22;;;17.50;42.60;;;;;;4976574;28;20209;-71
2022/01/23 08:58:22;;;;;;;9.10;7.50;;;17.50;42.70;;;;;;4979849;28;20236;-71
2022/01/23 09:00:49;;;;;;;5.95;5.43;;;17.60;43.20;;;;;;4978432;28;20224;-69
2022/01/23 09:03:17;;;;;;;6.13;5.55;;;17.60;43.90;;;;;;4976282;28;20304;-67
2022/01/23 09:05:50;;;;;;;8.70;5.95;;;17.70;44.00;;;;;;4980665;28;20194;-68
2022/01/23 09:08:17;;;;;;;7.25;6.55;;;17.60;43.40;;;;;;4976649;28;20759;-65
2022/01/23 09:10:53;;;;;;;6.25;5.63;;;17.70;42.70;;;;;;4975243;28;20225;-69
2022/01/23 09:13:32;;;;;;;85.95;56.63;;;17.70;43.90;;;;;;4976301;28;20221;-68
2022/01/23 09:15:59;;;;;;;673.45;436.67;;;17.80;45.40;;;;;;4977235;28;20206;-67
2022/01/23 09:18:32;;;;;;;505.27;354.25;;;17.80;48.20;;;;;;4976334;28;20384;-70
2022/01/23 09:20:59;;;;;;;93.18;64.32;;;17.70;48.30;;;;;;4975584;28;20229;-71
2022/01/23 09:23:26;;;;;;;94.03;65.13;;;17.80;44.00;;;;;;4991807;28;20214;-71
2022/01/23 09:25:56;;;;;;;120.65;78.18;;;17.80;43.20;;;;;;4974973;28;20204;-70
2022/01/23 09:28:30;;;;;;;92.57;68.93;;;17.90;43.40;;;;;;4975164;28;20198;-70
2022/01/23 09:30:57;;;;;;;90.97;65.47;;;17.90;43.50;;;;;;4975159;28;20277;-71
2022/01/23 09:33:24;;;;;;;85.35;60.10;;;18.00;43.60;;;;;;4975232;28;20242;-70
2022/01/23 09:35:53;;;;;;;92.40;63.33;;;18.10;43.30;;;;;;4976904;28;20198;-69
2022/01/23 09:38:20;;;;;;;91.05;62.75;;;18.20;43.50;;;;;;4991525;28;20214;-71
2022/01/23 09:40:47;;;;;;;86.28;62.58;;;18.20;43.20;;;;;;4976796;28;20198;-71
2022/01/23 09:43:17;;;;;;;85.07;57.88;;;18.30;43.00;;;;;;4974108;28;20241;-70
2022/01/23 09:45:44;;;;;;;85.97;60.67;;;18.30;43.30;;;;;;4976415;28;20198;-70
2022/01/23 09:48:12;;;;;;;84.50;58.42;;;18.40;43.30;;;;;;4976006;28;20191;-71
2022/01/23 09:50:39;;;;;;;77.18;53.88;;;18.40;43.10;;;;;;4974690;28;20754;-71
2022/01/23 09:53:07;;;;;;;77.45;53.25;;;18.50;43.50;;;;;;4974718;28;20797;-69
2022/01/23 09:55:35;;;;;;;76.85;53.00;;;18.50;43.30;;;;;;4975109;28;20689;-70
2022/01/23 09:58:02;;;;;;;70.70;51.70;;;18.60;43.50;;;;;;4991527;28;20218;-70
2022/01/23 10:00:30;;;;;;;65.03;50.40;;;18.50;43.10;;;;;;4976211;28;20282;-70
2022/01/23 10:02:57;;;;;;;71.72;50.65;;;18.60;43.70;;;;;;4974916;28;20293;-70
2022/01/23 10:05:24;;;;;;;69.22;50.63;;;18.60;43.80;;;;;;4974997;28;20202;-69
2022/01/23 10:07:51;;;;;;;66.82;51.03;;;18.70;44.00;;;;;;4974824;28;20267;-72
2022/01/23 10:10:23;;;;;;;65.10;47.42;;;18.70;44.00;;;;;;4976758;28;20191;-68
2022/01/23 10:12:51;;;;;;;67.60;48.17;;;18.70;44.20;;;;;;4975638;28;20206;-70
2022/01/23 10:15:19;;;;;;;64.93;46.20;;;18.80;44.60;;;;;;4976394;28;20209;-69
2022/01/23 10:17:46;;;;;;;66.57;47.22;;;18.80;44.40;;;;;;4975108;28;20692;-68
2022/01/23 10:20:13;;;;;;;60.08;46.00;;;18.80;44.70;;;;;;4983063;28;20226;-70
2022/01/23 10:22:43;;;;;;;66.40;46.10;;;18.90;44.40;;;;;;4978289;28;20225;-70
2022/01/23 10:25:11;;;;;;;56.78;42.83;;;18.90;44.80;;;;;;4977008;28;20658;-69
2022/01/23 10:28:10;;;;;;;62.40;43.75;;;18.90;44.70;;;;;;4975066;28;20206;-70
2022/01/23 10:30:39;;;;;;;54.38;41.03;;;18.90;44.00;;;;;;4919691;29;20468;-70
2022/01/23 10:33:10;;;;;;;51.50;37.88;;;18.90;43.90;;;;;;4979229;28;20226;-69
2022/01/23 10:35:53;;;;;;;43.00;33.95;;;19.00;43.90;;;;;;4975085;28;20201;-70
2022/01/23 10:38:20;;;;;;;40.10;29.33;;;19.00;43.30;;;;;;4974559;28;20637;-71
2022/01/23 10:40:51;;;;;;;35.38;27.50;;;19.00;43.10;;;;;;4975801;28;20194;-69
2022/01/23 10:48:46;;;;;;;35.85;24.27;;;19.00;42.00;;;;;;4975670;28;20637;-70
2022/01/23 10:51:35;;;;;;;28.20;22.25;;;18.90;42.40;;;;;;4976271;28;20190;-70
2022/01/23 10:54:19;;;;;;;29.02;20.02;;;19.00;41.90;;;;;;4974735;28;20253;-70
2022/01/23 10:57:04;;;;;;;29.58;20.50;;;19.00;41.80;;;;;;4975578;28;20222;-69
2022/01/23 10:59:43;;;;;;;26.52;20.25;;;18.90;42.20;;;;;;4974831;28;20404;-69
2022/01/23 11:02:11;;;;;;;21.70;18.35;;;19.00;41.40;;;;;;4974735;28;20666;-70
2022/01/23 11:04:51;;;;;;;23.98;18.52;;;19.00;41.00;;;;;;4974331;28;20302;-69
2022/01/23 11:07:18;;;;;;;23.67;18.65;;;19.00;40.90;;;;;;4974539;28;20198;-70
2022/01/23 11:09:45;;;;;;;19.77;17.23;;;19.00;40.80;;;;;;4975039;28;20201;-71
2022/01/23 11:18:26;;;;;;;21.15;15.90;;;18.90;40.70;;;;;;4980054;28;20194;-72
2022/01/23 11:21:04;;;;;;;18.75;15.40;;;19.00;40.80;;;;;;4979183;28;20213;-73
2022/01/23 11:23:36;;;;;;;20.60;14.93;;;19.00;40.50;;;;;;4977740;28;20716;-69
2022/01/23 11:26:10;;;;;;;19.17;14.63;;;18.90;40.40;;;;;;4976075;28;20264;-70
2022/01/23 11:28:47;;;;;;;16.15;13.55;;;18.90;40.40;;;;;;4996073;28;20201;-70
2022/01/23 11:31:25;;;;;;;17.08;13.27;;;18.90;40.30;;;;;;4980129;28;20198;-68
2022/01/23 11:34:15;;;;;;;19.27;13.55;;;18.90;40.40;;;;;;4978190;28;20218;-70
2022/01/23 11:36:51;;;;;;;15.63;12.63;;;18.90;40.40;;;;;;4978411;28;20654;-71
2022/01/23 11:39:29;;;;;;;16.63;12.82;;;19.00;40.30;;;;;;4979070;28;20216;-72
2022/01/23 11:54:36;;;;;;;12.75;10.52;;;18.90;39.90;;;;;;4977248;28;20229;-69
2022/01/23 11:57:03;;;;;;;12.85;10.35;;;18.90;39.90;;;;;;4978989;28;20225;-69
2022/01/23 11:59:59;;;;;;;13.82;10.27;;;18.90;39.70;;;;;;4976282;28;20580;-70
2022/01/23 12:02:32;;;;;;;14.68;10.27;;;18.90;39.70;;;;;;4973722;28;20209;-70
2022/01/23 12:05:23;;;;;;;13.48;10.25;;;18.90;39.80;;;;;;4975175;28;20268;-69
2022/01/23 12:08:19;;;;;;;11.05;9.68;;;18.90;39.70;;;;;;4977457;28;20194;-67
2022/01/23 12:11:24;;;;;;;12.60;9.52;;;18.90;39.70;;;;;;4977392;28;20218;-68
2022/01/23 12:17:19;;;;;;;10.15;8.30;;;18.90;40.20;;;;;;4978382;28;20175;-71
2022/01/23 12:19:57;;;;;;;9.98;8.90;;;18.90;39.70;;;;;;4977051;28;20218;-70
2022/01/23 12:22:35;;;;;;;9.13;8.13;;;18.90;39.70;;;;;;4976484;28;20186;-69
2022/01/23 12:25:08;;;;;;;9.43;7.95;;;19.00;39.90;;;;;;4976659;28;20276;-68
2022/01/23 12:27:35;;;;;;;11.10;7.45;;;19.00;39.70;;;;;;4976584;28;20297;-68
2022/01/23 12:30:13;;;;;;;9.95;7.50;;;19.00;39.70;;;;;;4976439;28;20297;-69
2022/01/23 12:32:40;;;;;;;9.18;6.78;;;19.00;39.70;;;;;;4976852;28;20288;-70
2022/01/23 12:35:08;;;;;;;9.98;7.40;;;19.00;39.70;;;;;;4976492;28;20257;-68
2022/01/23 12:38:06;;;;;;;9.35;7.32;;;19.00;39.70;;;;;;4977732;28;20281;-69
2022/01/23 12:40:36;;;;;;;9.13;7.28;;;19.00;39.40;;;;;;4977456;28;20284;-69
2022/01/23 12:43:07;;;;;;;10.18;7.30;;;19.00;39.50;;;;;;4976879;28;20292;-70
2022/01/23 12:45:45;;;;;;;10.27;7.05;;;19.00;39.60;;;;;;4976923;28;20220;-69
2022/01/23 12:48:45;;;;;;;9.02;6.82;;;19.00;40.10;;;;;;4977827;28;20208;-70
2022/01/23 12:51:36;;;;;;;8.48;6.38;;;19.10;39.80;;;;;;4977658;28;20194;-70
2022/01/23 12:54:32;;;;;;;7.85;6.72;;;19.00;39.40;;;;;;4980997;28;20261;-69
2022/01/23 12:57:12;;;;;;;8.02;6.55;;;19.10;39.60;;;;;;4975261;28;20202;-70
2022/01/23 12:59:39;;;;;;;7.43;6.65;;;19.00;39.70;;;;;;4978338;28;20212;-69
2022/01/23 13:02:13;;;;;;;8.63;7.13;;;19.10;39.60;;;;;;4977027;28;20662;-69
2022/01/23 13:04:48;;;;;;;9.38;6.40;;;19.10;39.80;;;;;;4979932;28;20213;-68
2022/01/23 13:07:22;;;;;;;7.05;6.30;;;19.10;39.90;;;;;;4979254;28;20194;-71
2022/01/23 13:10:04;;;;;;;10.93;7.15;;;19.10;40.00;;;;;;4975787;28;20202;-68
2022/01/23 13:12:50;;;;;;;7.78;6.10;;;19.10;39.60;;;;;;4975872;28;20194;-68
2022/01/23 13:15:41;;;;;;;7.93;5.82;;;19.10;39.50;;;;;;4975845;28;20280;-68
2022/01/23 13:18:19;;;;;;;6.35;5.63;;;19.10;39.40;;;;;;4976789;28;20189;-69
2022/01/23 13:32:00;;;;;;;6.43;4.88;;;19.10;39.40;;;;;;4976419;28;20201;-70
2022/01/23 13:34:29;;;;;;;5.68;5.13;;;19.00;39.20;;;;;;4976440;28;20252;-70
2022/01/23 13:36:58;;;;;;;6.90;5.63;;;19.00;39.20;;;;;;4976388;28;20266;-69
2022/01/23 13:39:27;;;;;;;5.72;4.35;;;19.00;39.20;;;;;;4975185;28;20272;-70
2022/01/23 13:42:19;;;;;;;6.72;5.18;;;19.00;39.20;;;;;;4976150;28;20708;-67
2022/01/23 13:53:24;;;;;;;5.22;4.65;;;19.00;39.10;;;;;;4974468;28;20703;-67
2022/01/23 13:58:39;;;;;;;5.15;3.88;;;19.00;38.90;;;;;;4976361;28;20182;-70
2022/01/23 14:01:29;;;;;;;4.55;3.92;;;19.00;38.90;;;;;;4975245;28;20273;-69
2022/01/23 14:03:56;;;;;;;4.50;4.00;;;19.00;38.70;;;;;;4974403;28;20643;-68
2022/01/23 14:06:25;;;;;;;4.50;3.80;;;19.00;38.80;;;;;;4976016;28;20194;-66
2022/01/23 14:09:04;;;;;;;4.63;3.90;;;19.00;38.70;;;;;;4975677;28;20688;-68
2022/01/23 14:11:31;;;;;;;5.10;3.80;;;19.00;38.20;;;;;;4974943;28;20264;-70
2022/01/23 14:19:43;;;;;;;4.82;3.72;;;19.00;38.30;;;;;;5089772;28;20270;-56
2022/01/23 14:22:36;;;;;;;3.75;3.45;;;19.00;38.20;;;;;;5089937;28;20236;-55
2022/01/23 14:25:08;;;;;;;4.72;3.40;;;19.00;38.40;;;;;;5088665;28;20305;-55
2022/01/23 14:27:35;;;;;;;4.35;3.53;;;18.90;38.30;;;;;;5088725;28;20198;-55
2022/01/23 14:30:06;;;;;;;5.82;3.60;;;18.90;37.90;;;;;;5089040;28;20215;-55
2022/01/23 14:32:41;;;;;;;3.60;3.30;;;18.90;38.10;;;;;;5090242;28;20255;-55
2022/01/23 14:35:11;;;;;;;4.05;3.53;;;18.90;38.00;;;;;;5090135;28;20206;-56
2022/01/23 14:37:39;;;;;;;4.28;3.67;;;18.90;38.10;;;;;;5090051;28;20210;-56
2022/01/23 14:40:15;;;;;;;5.05;3.75;;;18.90;37.90;;;;;;5090388;28;20186;-55
2022/01/23 14:42:58;;;;;;;3.60;3.30;;;18.90;37.90;;;;;;5089306;28;20202;-56
2022/01/23 14:45:25;;;;;;;3.80;3.47;;;18.90;38.60;;;;;;5089607;28;20206;-55
2022/01/23 14:47:54;;;;;;;4.10;3.70;;;18.90;37.60;;;;;;5090253;28;20195;-56
2022/01/23 14:50:24;;;;;;;4.82;4.10;;;18.90;37.90;;;;;;5088776;28;20216;-56
2022/01/23 14:52:51;;;;;;;3.80;3.50;;;18.80;38.00;;;;;;5088597;28;20270;-55
2022/01/23 14:55:20;;;;;;;5.35;3.65;;;18.80;38.10;;;;;;5088553;28;20574;-55
2022/01/23 14:57:47;;;;;;;3.80;3.50;;;18.80;38.20;;;;;;5089901;28;20255;-54
2022/01/23 15:00:15;;;;;;;3.90;3.50;;;18.80;38.20;;;;;;5089548;28;20240;-56
2022/01/23 15:02:43;;;;;;;5.10;3.60;;;18.80;38.00;;;;;;5088080;28;20542;-55
2022/01/23 15:05:12;;;;;;;4.22;3.53;;;18.80;38.00;;;;;;5089300;28;20225;-55
2022/01/23 15:07:40;;;;;;;4.22;3.83;;;18.80;38.10;;;;;;5087994;28;20234;-56
2022/01/23 15:10:08;;;;;;;5.75;3.88;;;18.70;38.10;;;;;;5087778;28;20190;-55
2022/01/23 15:12:35;;;;;;;4.90;4.30;;;18.70;38.10;;;;;;5089150;28;20274;-55
2022/01/23 15:15:02;;;;;;;6.05;4.95;;;18.70;38.10;;;;;;5088636;28;20234;-55
2022/01/23 15:17:29;;;;;;;5.00;4.07;;;18.70;38.10;;;;;;5089104;28;20658;-55
2022/01/23 15:19:57;;;;;;;5.15;4.25;;;18.70;38.70;;;;;;5089078;28;20194;-56
2022/01/23 15:22:27;;;;;;;4.65;4.20;;;18.70;38.20;;;;;;5087599;28;20194;-55
2022/01/23 15:24:55;;;;;;;3.65;3.35;;;18.60;38.00;;;;;;5088947;28;20554;-55
2022/01/23 15:27:22;;;;;;;3.55;3.25;;;18.70;38.50;;;;;;5080264;28;20312;-55
2022/01/23 15:29:49;;;;;;;4.13;3.47;;;18.60;38.40;;;;;;5075528;28;20237;-56
2022/01/23 15:32:16;;;;;;;4.50;4.00;;;18.60;38.40;;;;;;5075644;28;20190;-56
2022/01/23 15:34:44;;;;;;;4.25;3.78;;;18.60;38.10;;;;;;5075396;28;20226;-55
2022/01/23 15:37:13;;;;;;;3.85;3.55;;;18.60;38.30;;;;;;5073856;28;20578;-55
2022/01/23 15:39:42;;;;;;;3.85;3.53;;;18.50;38.20;;;;;;5073891;28;20191;-55
2022/01/23 15:42:09;;;;;;;3.63;3.33;;;18.50;38.20;;;;;;5075456;28;20635;-56
2022/01/23 15:44:36;;;;;;;4.20;3.60;;;18.50;38.10;;;;;;5074950;28;20694;-55
2022/01/23 15:47:04;;;;;;;4.22;3.83;;;18.60;38.30;;;;;;5074990;28;20261;-55
2022/01/23 15:49:31;;;;;;;3.83;3.47;;;18.50;38.50;;;;;;5075473;28;20693;-55
2022/01/23 15:51:58;;;;;;;3.90;3.60;;;18.50;38.30;;;;;;5075535;28;20187;-55
2022/01/23 15:54:26;;;;;;;3.80;3.50;;;18.50;38.30;;;;;;5075134;28;20694;-55
2022/01/23 15:56:55;;;;;;;4.03;3.63;;;18.50;38.40;;;;;;5075002;28;20210;-55
2022/01/23 15:59:22;;;;;;;3.70;3.40;;;18.50;38.50;;;;;;5073570;28;20721;-56
2022/01/23 16:01:49;;;;;;;3.50;3.20;;;18.50;38.50;;;;;;5073391;28;20195;-56
2022/01/23 16:04:17;;;;;;;3.55;3.25;;;18.50;38.70;;;;;;5074789;28;20596;-56
2022/01/23 16:06:44;;;;;;;3.30;2.75;;;18.40;38.50;;;;;;5074807;28;20206;-55
2022/01/23 16:09:11;;;;;;;3.53;3.22;;;18.50;38.60;;;;;;5074509;28;20197;-55